Latest Weather Observations for Loxton

IDS60801

Issued at 5:01 pm CDT Saturday 25 February 2017 (issued every 30 minutes, with the page automatically refreshed every 10 minutes)

About weather observations | Map of weather stations | Latest weather observations for SA | Other Formats
Station Details ID: 024024 Name: LOXTON RESEARCH CENTRE Lat: -34.44 Lon: 140.60 Height: 30.1 m
Data from the previous 72 hours. | See also: Recent months at Loxton
Date/Time
CDT
Temp
°C
App
Temp
°C
Dew
Point
°C
Rel
Hum
%
Delta-T
°C
Wind Press
QNH
hPa
Press
MSL
hPa
Rain since
9am
mm
Dir  Spd
km/h
Gust
km/h
Spd
kts
Gust
kts
25/05:00pm 26.7 21.2 1.7 19 12.0 S 20 32 11 17 1019.1 1018.9 0.0
25/04:30pm 26.4 21.2 2.2 21 11.7 S 19 28 10 15 1019.3 1019.1 0.0
25/04:00pm 26.2 20.8 2.5 21 11.5 SSE 20 32 11 17 1019.8 1019.7 0.0
25/03:30pm 26.2 21.2 3.6 23 11.2 S 19 32 10 17 1020.1 1020.0 0.0
25/03:00pm 25.6 20.0 3.7 24 10.8 S 22 35 12 19 1020.6 1020.5 0.0
25/02:30pm 25.2 20.1 4.3 26 10.4 S 20 32 11 17 1021.1 1021.0 0.0
25/02:00pm 24.3 19.0 5.2 29 9.6 SSW 22 32 12 17 1021.6 1021.5 0.0
25/01:30pm 24.1 19.0 4.2 27 9.8 S 20 32 11 17 1022.1 1022.0 0.0
25/01:00pm 23.9 19.2 5.1 29 9.4 S 19 30 10 16 1022.5 1022.4 0.0
25/12:30pm 22.6 18.3 5.3 32 8.6 S 17 28 9 15 1022.8 1022.7 0.0
25/12:00pm 21.6 16.3 5.2 34 8.1 SSE 22 35 12 19 1023.4 1023.3 0.0
25/11:30am 20.5 16.0 6.3 39 7.1 SSE 19 28 10 15 1024.0 1023.9 0.0
25/11:00am 19.5 16.0 7.0 44 6.3 SSE 15 24 8 13 1024.2 1024.1 0.0
25/10:30am 18.6 14.7 7.0 46 5.8 SSE 17 24 9 13 1024.6 1024.5 0.0
25/10:00am 18.2 14.5 8.0 51 5.2 S 17 22 9 12 1025.0 1024.9 0.0
25/09:30am 16.9 12.8 8.0 55 4.5 SSE 19 26 10 14 1025.0 1024.9 0.0
25/09:00am 16.0 12.4 8.3 60 3.9 SSE 17 24 9 13 1024.8 1024.7 0.0
25/08:30am 14.5 10.9 8.3 66 3.1 SSE 17 24 9 13 1024.9 1024.8 0.0
25/08:00am 12.5 8.9 8.2 75 2.1 S 17 22 9 12 1024.9 1024.8 0.0
25/07:30am 11.4 8.4 7.9 79 1.7 SSW 13 17 7 9 1024.7 1024.6 0.0
25/07:00am 10.7 8.1 7.6 81 1.5 S 11 15 6 8 1024.2 1024.1 0.0
25/06:30am 11.0 8.3 7.4 78 1.7 S 11 15 6 8 1023.8 1023.7 0.0
25/06:00am 11.3 8.6 7.3 76 1.9 S 11 13 6 7 1023.6 1023.5 0.0
25/05:30am 11.8 9.4 7.2 73 2.2 S 9 15 5 8 1023.5 1023.4 0.0
25/05:00am 12.4 9.3 7.4 71 2.4 S 13 17 7 9 1023.3 1023.2 0.0
25/04:30am 13.0 9.9 7.4 69 2.7 S 13 19 7 10 1023.1 1023.0 0.0
25/04:00am 13.6 10.1 7.2 65 3.1 S 15 20 8 11 1023.0 1022.9 0.0
25/03:30am 13.9 10.5 7.6 66 3.1 S 15 24 8 13 1023.0 1022.9 0.0
25/03:00am 14.2 10.8 7.7 65 3.2 S 15 20 8 11 1023.0 1022.9 0.0
25/02:30am 14.7 10.9 7.6 62 3.5 S 17 24 9 13 1023.1 1023.0 0.0
25/02:00am 15.0 11.2 7.7 61 3.6 S 17 24 9 13 1023.1 1023.0 0.0
25/01:30am 15.4 11.7 8.0 61 3.7 S 17 24 9 13 1023.3 1023.2 0.0
25/01:00am 15.6 12.0 8.5 62 3.6 S 17 22 9 12 1023.6 1023.5 0.0
25/12:30am 16.1 12.6 8.6 61 3.8 SSW 17 24 9 13 1023.7 1023.6 0.0
25/12:00am 16.5 12.6 8.7 60 4.0 SSW 19 26 10 14 1023.8 1023.7 0.0
 
Date/Time
CDT
Temp
°C
App
Temp
°C
Dew
Point
°C
Rel
Hum
%
Delta-T
°C
Wind Press
QNH
hPa
Press
MSL
hPa
Rain since
9am
mm
Dir  Spd
km/h
Gust
km/h
Spd
kts
Gust
kts
24/11:30pm 16.9 13.0 8.7 58 4.2 SSW 19 28 10 15 1023.6 1023.5 0.0
24/11:00pm 17.4 12.9 8.6 56 4.5 SSW 22 32 12 17 1023.7 1023.6 0.0
24/10:30pm 18.0 13.9 8.7 54 4.8 SSW 20 33 11 18 1023.6 1023.5 0.0
24/10:00pm 19.0 14.9 8.6 51 5.4 SSW 20 35 11 19 1023.4 1023.3 0.0
24/09:30pm 20.6 16.2 8.8 46 6.2 SSW 22 32 12 17 1023.2 1023.1 0.0
24/09:00pm 21.8 17.8 8.2 41 7.1 SSW 19 32 10 17 1022.8 1022.7 0.0
24/08:30pm 22.8 19.5 6.3 34 8.4 SSW 13 19 7 10 1022.4 1022.3 0.0
24/08:00pm 23.8 20.1 6.2 32 9.0 S 15 22 8 12 1022.2 1022.1 0.0
24/07:30pm 24.8 20.6 5.8 29 9.7 S 17 24 9 13 1021.9 1021.8 0.0
24/07:00pm 25.7 20.8 5.2 26 10.4 S 20 30 11 16 1021.7 1021.6 0.0
24/06:30pm 26.4 21.5 4.9 25 10.9 S 20 28 11 15 1021.6 1021.5 0.0
24/06:00pm 26.8 22.1 5.0 24 11.1 S 19 28 10 15 1021.5 1021.4 0.0
24/05:30pm 26.7 21.7 4.5 24 11.2 S 20 32 11 17 1021.6 1021.5 0.0
24/05:00pm 26.9 21.9 4.5 23 11.3 S 20 32 11 17 1021.7 1021.6 0.0
24/04:30pm 27.1 22.3 4.9 24 11.3 S 19 32 10 17 1021.7 1021.6 0.0
24/04:00pm 26.8 22.2 5.6 25 10.9 S 19 30 10 16 1022.1 1022.0 0.0
24/03:30pm 26.7 22.1 5.4 25 10.9 S 19 33 10 18 1022.4 1022.3 0.0
24/03:00pm 25.6 21.1 4.0 24 10.7 S 17 28 9 15 1022.8 1022.7 0.0
24/02:30pm 25.6 20.8 4.4 25 10.6 S 19 32 10 17 1023.1 1023.0 0.0
24/02:00pm 24.8 19.9 4.2 26 10.2 S 19 30 10 16 1023.6 1023.5 0.0
24/01:30pm 24.2 19.9 5.3 29 9.5 SSE 17 28 9 15 1023.9 1023.8 0.0
24/01:00pm 23.2 18.2 4.8 30 9.1 SSE 20 32 11 17 1024.0 1023.9 0.0
24/12:30pm 22.4 17.8 5.6 33 8.4 S 19 26 10 14 1024.7 1024.6 0.0
24/12:00pm 21.6 16.4 5.7 35 7.9 S 22 33 12 18 1025.1 1025.0 0.0
24/11:30am 21.1 16.5 6.4 38 7.4 S 20 32 11 17 1025.6 1025.5 0.0
24/11:00am 19.9 15.4 6.8 42 6.6 SSE 20 32 11 17 1025.8 1025.7 0.0
24/10:30am 18.7 13.7 6.6 45 6.0 SSE 22 35 12 19 1026.0 1025.9 0.0
24/10:00am 17.9 13.0 7.1 49 5.4 SSE 22 33 12 18 1026.2 1026.1 0.0
24/09:30am 17.4 12.6 7.4 52 5.0 SSE 22 32 12 17 1026.2 1026.1 0.0
24/09:00am 16.3 11.5 7.2 55 4.5 SSE 22 33 12 18 1025.9 1025.8 0.0
24/08:30am 14.9 10.9 8.3 64 3.3 S 19 26 10 14 1025.8 1025.7 0.0
24/08:00am 13.4 10.2 8.4 72 2.5 S 15 24 8 13 1025.5 1025.4 0.0
24/07:30am 12.0 9.1 8.1 77 1.9 SSW 13 19 7 10 1025.3 1025.2 0.0
24/07:00am 11.7 9.2 8.2 79 1.7 SSW 11 17 6 9 1024.7 1024.6 0.0
24/06:30am 12.1 9.6 8.2 77 1.9 SSW 11 15 6 8 1024.4 1024.3 0.0
24/06:00am 12.1 10.0 8.2 77 1.9 SSW 9 13 5 7 1024.0 1023.9 0.0
24/05:30am 12.6 10.2 8.6 76 2.0 S 11 17 6 9 1023.9 1023.8 0.0
24/05:00am 12.9 10.5 8.7 75 2.1 S 11 15 6 8 1023.6 1023.5 0.0
24/04:30am 13.3 10.9 8.7 73 2.3 S 11 20 6 11 1023.4 1023.3 0.0
24/04:00am 13.6 10.9 8.8 73 2.4 S 13 20 7 11 1023.3 1023.2 0.0
24/03:30am 14.0 11.0 9.1 72 2.5 S 15 20 8 11 1023.2 1023.1 0.0
24/03:00am 14.2 11.2 9.3 72 2.5 S 15 22 8 12 1023.3 1023.2 0.0
24/02:30am 14.7 11.7 9.4 70 2.7 S 15 20 8 11 1023.4 1023.3 0.0
24/02:00am 15.1 12.2 9.5 69 2.9 S 15 24 8 13 1023.3 1023.2 0.0
24/01:30am 15.5 12.5 9.3 66 3.2 S 15 24 8 13 1023.3 1023.2 0.0
24/01:00am 16.0 13.0 9.2 64 3.5 S 15 24 8 13 1023.3 1023.2 0.0
24/12:30am 16.6 13.2 9.2 61 3.8 S 17 22 9 12 1023.2 1023.1 0.0
24/12:00am 17.3 13.5 9.2 59 4.2 S 19 28 10 15 1023.0 1022.9 0.0
 
Date/Time
CDT
Temp
°C
App
Temp
°C
Dew
Point
°C
Rel
Hum
%
Delta-T
°C
Wind Press
QNH
hPa
Press
MSL
hPa
Rain since
9am
mm
Dir  Spd
km/h
Gust
km/h
Spd
kts
Gust
kts
23/11:30pm 18.0 14.1 9.4 57 4.5 S 20 33 11 18 1022.8 1022.7 0.0
23/11:00pm 18.9 15.0 9.6 54 4.9 SSW 20 33 11 18 1022.5 1022.4 0.0
23/10:30pm 19.8 16.1 9.6 51 5.4 S 19 28 10 15 1022.1 1022.0 0.0
23/10:00pm 20.6 17.4 9.8 50 5.8 S 17 26 9 14 1021.8 1021.7 0.0
23/09:30pm 21.5 18.6 9.8 47 6.3 S 15 22 8 12 1021.4 1021.3 0.0
23/09:00pm 22.3 20.2 9.9 45 6.7 SSW 11 19 6 10 1021.0 1020.9 0.0
23/08:30pm 22.9 20.9 10.1 44 7.0 S 11 15 6 8 1020.6 1020.5 0.0
23/08:00pm 24.2 21.8 10.0 40 7.8 SSW 13 20 7 11 1020.1 1020.0 0.0
23/07:30pm 25.6 22.9 9.0 35 9.0 SSW 13 20 7 11 1019.6 1019.4 0.0
23/07:00pm 26.6 24.0 9.5 34 9.4 S 13 19 7 10 1019.3 1019.1 0.0
23/06:30pm 27.3 24.7 9.3 32 9.9 SSW 13 17 7 9 1019.1 1018.9 0.0
23/06:00pm 27.4 24.6 8.4 30 10.3 S 13 20 7 11 1019.0 1018.8 0.0
23/05:30pm 27.6 24.3 9.5 32 10.0 S 17 24 9 13 1018.8 1018.6 0.0
23/05:00pm 27.9 25.4 9.8 32 10.1 SW 13 19 7 10 1018.6 1018.4 0.0
23/04:30pm 27.7 25.0 8.9 30 10.3 SSW 13 20 7 11 1018.7 1018.5 0.0
23/04:00pm 26.9 24.9 10.2 35 9.3 SSW 11 17 6 9 1018.9 1018.7 0.0
23/03:30pm 27.6 25.6 10.3 34 9.7 WSW 11 19 6 10 1019.0 1018.8 0.0
23/03:00pm 26.5 24.8 11.1 38 8.7 SW 11 17 6 9 1019.2 1019.0 0.0
23/02:30pm 26.4 23.8 10.7 37 8.8 SSW 15 28 8 15 1019.6 1019.4 0.0
23/02:00pm 26.2 24.1 9.9 35 9.0 SW 11 24 6 13 1019.6 1019.4 0.0
23/01:30pm 24.9 22.4 11.0 41 7.8 SSW 15 26 8 14 1020.0 1019.9 0.0
23/01:00pm 23.7 21.2 10.9 44 7.1 SSW 15 22 8 12 1020.2 1020.1 0.0
23/12:30pm 22.9 20.7 12.1 50 6.1 SSW 15 24 8 13 1020.4 1020.3 0.0
23/12:00pm 22.6 21.1 11.9 50 6.0 SW 11 20 6 11 1020.7 1020.6 0.0
23/11:30am 21.5 19.2 11.8 54 5.4 SSW 15 22 8 12 1020.9 1020.8 0.0
23/11:00am 21.5 19.4 12.3 55 5.2 SW 15 20 8 11 1021.0 1020.9 0.0
23/10:30am 21.1 18.5 12.0 56 5.1 SSW 17 28 9 15 1021.0 1020.9 0.0
23/10:00am 19.9 16.7 12.0 60 4.4 SW 20 26 11 14 1020.9 1020.8 0.0
23/09:30am 19.4 16.2 12.0 62 4.1 SSW 20 30 11 16 1020.5 1020.4 0.0
23/09:00am 18.8 16.4 12.5 67 3.5 SW 17 26 9 14 1020.2 1020.1 0.0
23/08:30am 17.7 16.1 12.7 72 2.8 SW 13 19 7 10 1019.8 1019.7 0.0
23/08:00am 16.7 16.0 12.1 74 2.5 W 7 11 4 6 1019.5 1019.3 0.0
23/07:30am 16.2 15.1 12.0 76 2.3 W 9 13 5 7 1019.0 1018.8 0.0
23/07:00am 15.7 14.9 11.6 76 2.2 W 7 9 4 5 1018.4 1018.2 0.0
23/06:30am 16.0 14.5 11.8 76 2.3 WSW 11 13 6 7 1017.8 1017.6 0.0
23/06:00am 16.1 14.9 11.7 75 2.4 WSW 9 13 5 7 1017.3 1017.1 0.0
23/05:30am 16.0 14.4 11.6 75 2.4 WSW 11 13 6 7 1017.0 1016.8 0.0
23/05:00am 13.3 13.1 10.6 84 1.4 WSW 2 11 1 6 1016.8 1016.6 0.0
23/04:30am 13.0 13.2 10.5 85 1.3 CALM 0 0 0 0 1016.8 1016.6 0.0
23/04:00am 13.7 13.8 10.2 79 1.8 CALM 0 0 0 0 1016.5 1016.3 0.0
23/03:30am 14.8 15.1 10.8 77 2.1 CALM 0 0 0 0 1016.3 1016.1 0.0
23/03:00am 17.6 16.3 11.1 65 3.5 WSW 9 13 5 7 1016.1 1015.9 0.0
23/02:30am 15.1 14.1 10.3 73 2.5 WSW 6 9 3 5 1016.1 1015.9 0.0
23/02:00am 15.6 14.7 10.5 71 2.7 W 6 7 3 4 1016.0 1015.8 0.0
23/01:30am 15.5 15.1 9.7 68 3.0 WSW 2 9 1 5 1015.8 1015.6 0.0
23/01:00am 17.3 16.3 10.3 63 3.7 WSW 6 7 3 4 1015.5 1015.3 0.0
23/12:30am 18.6 17.6 10.2 58 4.5 SW 6 9 3 5 1015.4 1015.2 0.0
23/12:00am 19.9 17.7 9.3 50 5.6 WSW 11 15 6 8 1015.2 1015.0 0.0
 
Date/Time
CDT
Temp
°C
App
Temp
°C
Dew
Point
°C
Rel
Hum
%
Delta-T
°C
Wind Press
QNH
hPa
Press
MSL
hPa
Rain since
9am
mm
Dir  Spd
km/h
Gust
km/h
Spd
kts
Gust
kts
22/11:30pm 20.8 17.3 8.6 45 6.4 WSW 17 24 9 13 1014.9 1014.7 0.0
22/11:00pm 21.2 18.2 7.9 42 6.9 SW 13 20 7 11 1014.7 1014.5 0.0
22/10:30pm 22.1 18.3 7.7 39 7.5 WSW 17 28 9 15 1014.4 1014.2 0.0
22/10:00pm 22.4 19.1 8.2 40 7.5 SW 15 24 8 13 1014.0 1013.8 0.0
22/09:30pm 23.6 19.2 7.3 35 8.5 WSW 20 32 11 17 1013.5 1013.3 0.0
22/09:00pm 24.3 19.3 6.5 32 9.2 WSW 22 43 12 23 1012.8 1012.6 0.0
22/08:30pm 25.0 19.4 5.6 28 9.9 SW 24 33 13 18 1011.9 1011.8 0.0
22/08:00pm 26.7 21.0 6.8 28 10.5 WSW 26 43 14 23 1010.9 1010.8 0.0
22/07:30pm 28.0 21.4 6.1 25 11.5 WSW 30 41 16 22 1010.2 1010.1 0.0
22/07:08pm 29.1 22.9 6.3 23 12.1 WSW 28 46 15 25 1009.6 1009.5 0.0
22/07:00pm 29.4 23.0 6.8 24 12.1 WSW 30 39 16 21 1009.5 1009.4 0.0
22/06:30pm 30.0 23.2 7.0 23 12.4 WSW 32 44 17 24 1009.0 1008.9 0.0
22/06:01pm 33.9 26.7 3.2 14 15.9 W 30 50 16 27 1008.1 1008.0 0.0
22/06:00pm 34.1 27.3 2.9 14 16.1 W 28 44 15 24 1008.1 1008.0 0.0
22/05:30pm 35.8 28.5 0.1 10 17.8 W 28 44 15 24 1007.6 1007.5 0.0

Other Formats:

Comma delimited format used in spreadsheet applications
http://www.bom.gov.au/fwo/IDS60801/IDS60801.94682.axf

JavaScript Object Notation format (JSON) in row-major order
http://www.bom.gov.au/fwo/IDS60801/IDS60801.94682.json